sensor_id;sensor_type;location;lat;lon;timestamp;temperature;humidity
58339;DHT22;48278;52.704;6.536;2022-11-23T00:01:09;8.00;99.90
58339;DHT22;48278;52.704;6.536;2022-11-23T00:03:34;8.00;99.90
58339;DHT22;48278;52.704;6.536;2022-11-23T00:06:01;8.00;99.90
58339;DHT22;48278;52.704;6.536;2022-11-23T00:08:27;8.00;99.90
58339;DHT22;48278;52.704;6.536;2022-11-23T00:10:52;7.90;99.90
58339;DHT22;48278;52.704;6.536;2022-11-23T00:13:22;8.00;99.90
58339;DHT22;48278;52.704;6.536;2022-11-23T00:15:47;8.00;99.90
58339;DHT22;48278;52.704;6.536;2022-11-23T00:18:14;7.90;99.90
58339;DHT22;48278;52.704;6.536;2022-11-23T00:20:40;8.00;99.90
58339;DHT22;48278;52.704;6.536;2022-11-23T00:23:05;8.00;99.90
58339;DHT22;48278;52.704;6.536;2022-11-23T00:25:31;8.00;99.90
58339;DHT22;48278;52.704;6.536;2022-11-23T00:27:57;8.00;99.90
58339;DHT22;48278;52.704;6.536;2022-11-23T00:30:22;8.00;99.90
58339;DHT22;48278;52.704;6.536;2022-11-23T00:32:48;7.90;99.90
58339;DHT22;48278;52.704;6.536;2022-11-23T00:35:14;7.90;99.90
58339;DHT22;48278;52.704;6.536;2022-11-23T00:37:39;8.00;99.90
58339;DHT22;48278;52.704;6.536;2022-11-23T00:40:06;7.90;99.90
58339;DHT22;48278;52.704;6.536;2022-11-23T00:42:31;8.00;99.90
58339;DHT22;48278;52.704;6.536;2022-11-23T00:44:57;8.00;99.90
58339;DHT22;48278;52.704;6.536;2022-11-23T00:47:23;7.90;99.90
58339;DHT22;48278;52.704;6.536;2022-11-23T00:49:48;7.90;99.90
58339;DHT22;48278;52.704;6.536;2022-11-23T00:52:14;8.00;99.90
58339;DHT22;48278;52.704;6.536;2022-11-23T00:54:40;7.90;99.90
58339;DHT22;48278;52.704;6.536;2022-11-23T00:57:05;7.90;99.90
58339;DHT22;48278;52.704;6.536;2022-11-23T00:59:31;7.90;99.90
58339;DHT22;48278;52.704;6.536;2022-11-23T01:01:57;8.00;99.90
58339;DHT22;48278;52.704;6.536;2022-11-23T01:04:23;8.00;99.90
58339;DHT22;48278;52.704;6.536;2022-11-23T01:06:48;8.00;99.90
58339;DHT22;48278;52.704;6.536;2022-11-23T01:09:16;8.00;99.90
58339;DHT22;48278;52.704;6.536;2022-11-23T01:11:42;8.00;99.90
58339;DHT22;48278;52.704;6.536;2022-11-23T01:14:09;8.00;99.90
58339;DHT22;48278;52.704;6.536;2022-11-23T01:16:37;8.00;99.90
58339;DHT22;48278;52.704;6.536;2022-11-23T01:19:06;8.00;99.90
58339;DHT22;48278;52.704;6.536;2022-11-23T01:21:34;8.00;99.90
58339;DHT22;48278;52.704;6.536;2022-11-23T01:24:07;8.00;99.90
58339;DHT22;48278;52.704;6.536;2022-11-23T01:26:33;8.00;99.90
58339;DHT22;48278;52.704;6.536;2022-11-23T01:28:59;8.00;99.90
58339;DHT22;48278;52.704;6.536;2022-11-23T01:31:26;8.10;99.90
58339;DHT22;48278;52.704;6.536;2022-11-23T01:33:56;8.00;99.90
58339;DHT22;48278;52.704;6.536;2022-11-23T01:36:24;8.00;99.90
58339;DHT22;48278;52.704;6.536;2022-11-23T01:38:50;8.00;99.90
58339;DHT22;48278;52.704;6.536;2022-11-23T01:41:29;8.00;99.90
58339;DHT22;48278;52.704;6.536;2022-11-23T01:43:55;8.00;99.90
58339;DHT22;48278;52.704;6.536;2022-11-23T01:46:21;8.00;99.90
58339;DHT22;48278;52.704;6.536;2022-11-23T01:51:32;8.00;99.90
58339;DHT22;48278;52.704;6.536;2022-11-23T01:54:11;8.00;99.90
58339;DHT22;48278;52.704;6.536;2022-11-23T01:56:41;8.00;99.90
58339;DHT22;48278;52.704;6.536;2022-11-23T01:59:14;8.00;99.90
58339;DHT22;48278;52.704;6.536;2022-11-23T02:01:41;7.90;99.90
58339;DHT22;48278;52.704;6.536;2022-11-23T02:04:10;7.90;99.90
58339;DHT22;48278;52.704;6.536;2022-11-23T02:06:38;8.00;99.90
58339;DHT22;48278;52.704;6.536;2022-11-23T02:09:05;7.90;99.90
58339;DHT22;48278;52.704;6.536;2022-11-23T02:11:32;7.90;99.90
58339;DHT22;48278;52.704;6.536;2022-11-23T02:13:58;7.90;99.90
58339;DHT22;48278;52.704;6.536;2022-11-23T02:16:25;7.90;99.90
58339;DHT22;48278;52.704;6.536;2022-11-23T02:18:51;7.90;99.90
58339;DHT22;48278;52.704;6.536;2022-11-23T02:21:17;7.90;99.90
58339;DHT22;48278;52.704;6.536;2022-11-23T02:24:09;7.90;99.90
58339;DHT22;48278;52.704;6.536;2022-11-23T02:26:37;7.90;99.90
58339;DHT22;48278;52.704;6.536;2022-11-23T02:29:08;7.90;99.90
58339;DHT22;48278;52.704;6.536;2022-11-23T02:31:35;7.90;99.90
58339;DHT22;48278;52.704;6.536;2022-11-23T02:34:01;7.90;99.90
58339;DHT22;48278;52.704;6.536;2022-11-23T02:36:48;7.90;99.90
58339;DHT22;48278;52.704;6.536;2022-11-23T02:39:32;7.90;99.90
58339;DHT22;48278;52.704;6.536;2022-11-23T02:41:59;7.90;99.90
58339;DHT22;48278;52.704;6.536;2022-11-23T02:44:45;8.00;99.90
58339;DHT22;48278;52.704;6.536;2022-11-23T02:47:12;7.90;99.90
58339;DHT22;48278;52.704;6.536;2022-11-23T02:49:40;8.00;99.90
58339;DHT22;48278;52.704;6.536;2022-11-23T02:52:07;8.00;99.90
58339;DHT22;48278;52.704;6.536;2022-11-23T02:54:33;8.00;99.90
58339;DHT22;48278;52.704;6.536;2022-11-23T02:56:59;8.00;99.90
58339;DHT22;48278;52.704;6.536;2022-11-23T02:59:24;8.00;99.90
58339;DHT22;48278;52.704;6.536;2022-11-23T03:01:50;8.00;99.90
58339;DHT22;48278;52.704;6.536;2022-11-23T03:04:16;8.00;99.90
58339;DHT22;48278;52.704;6.536;2022-11-23T03:06:41;8.00;99.90
58339;DHT22;48278;52.704;6.536;2022-11-23T03:09:07;8.00;99.90
58339;DHT22;48278;52.704;6.536;2022-11-23T03:11:33;8.00;99.90
58339;DHT22;48278;52.704;6.536;2022-11-23T03:13:59;8.00;99.90
58339;DHT22;48278;52.704;6.536;2022-11-23T03:16:25;8.00;99.90
58339;DHT22;48278;52.704;6.536;2022-11-23T03:18:50;8.00;99.90
58339;DHT22;48278;52.704;6.536;2022-11-23T03:21:16;8.10;99.90
58339;DHT22;48278;52.704;6.536;2022-11-23T03:23:42;8.10;99.90
58339;DHT22;48278;52.704;6.536;2022-11-23T03:26:08;8.10;99.90
58339;DHT22;48278;52.704;6.536;2022-11-23T03:28:34;8.10;99.90
58339;DHT22;48278;52.704;6.536;2022-11-23T03:30:59;8.10;99.90
58339;DHT22;48278;52.704;6.536;2022-11-23T03:33:25;8.10;99.90
58339;DHT22;48278;52.704;6.536;2022-11-23T03:35:51;8.00;99.90
58339;DHT22;48278;52.704;6.536;2022-11-23T03:38:17;8.10;99.90
58339;DHT22;48278;52.704;6.536;2022-11-23T03:40:45;8.10;99.90
58339;DHT22;48278;52.704;6.536;2022-11-23T03:43:12;8.10;99.90
58339;DHT22;48278;52.704;6.536;2022-11-23T03:45:38;8.10;99.90
58339;DHT22;48278;52.704;6.536;2022-11-23T03:48:04;8.20;99.90
58339;DHT22;48278;52.704;6.536;2022-11-23T03:50:30;8.10;99.90
58339;DHT22;48278;52.704;6.536;2022-11-23T03:52:56;8.20;99.90
58339;DHT22;48278;52.704;6.536;2022-11-23T03:55:22;8.10;99.90
58339;DHT22;48278;52.704;6.536;2022-11-23T03:57:48;8.20;99.90
58339;DHT22;48278;52.704;6.536;2022-11-23T04:00:14;8.10;99.90
58339;DHT22;48278;52.704;6.536;2022-11-23T04:02:41;8.10;99.90
58339;DHT22;48278;52.704;6.536;2022-11-23T04:05:07;8.10;99.90
58339;DHT22;48278;52.704;6.536;2022-11-23T04:07:33;8.10;99.90
58339;DHT22;48278;52.704;6.536;2022-11-23T04:09:58;8.10;99.90
58339;DHT22;48278;52.704;6.536;2022-11-23T04:12:24;8.10;99.90
58339;DHT22;48278;52.704;6.536;2022-11-23T04:14:51;8.10;99.90
58339;DHT22;48278;52.704;6.536;2022-11-23T04:17:16;8.10;99.90
58339;DHT22;48278;52.704;6.536;2022-11-23T04:19:42;8.10;99.90
58339;DHT22;48278;52.704;6.536;2022-11-23T04:22:08;8.10;99.90
58339;DHT22;48278;52.704;6.536;2022-11-23T04:24:33;8.20;99.90
58339;DHT22;48278;52.704;6.536;2022-11-23T04:26:59;8.20;99.90
58339;DHT22;48278;52.704;6.536;2022-11-23T04:29:25;8.20;99.90
58339;DHT22;48278;52.704;6.536;2022-11-23T04:31:50;8.20;99.90
58339;DHT22;48278;52.704;6.536;2022-11-23T04:34:16;8.20;99.90
58339;DHT22;48278;52.704;6.536;2022-11-23T04:36:42;8.10;99.90
58339;DHT22;48278;52.704;6.536;2022-11-23T04:39:10;8.10;99.90
58339;DHT22;48278;52.704;6.536;2022-11-23T04:41:37;8.10;99.90
58339;DHT22;48278;52.704;6.536;2022-11-23T04:44:04;8.10;99.90
58339;DHT22;48278;52.704;6.536;2022-11-23T04:46:29;8.10;99.90
58339;DHT22;48278;52.704;6.536;2022-11-23T04:48:55;8.10;99.90
58339;DHT22;48278;52.704;6.536;2022-11-23T04:51:21;8.00;99.90
58339;DHT22;48278;52.704;6.536;2022-11-23T04:53:47;8.00;99.90
58339;DHT22;48278;52.704;6.536;2022-11-23T04:56:13;8.00;99.90
58339;DHT22;48278;52.704;6.536;2022-11-23T04:58:38;8.00;99.90
58339;DHT22;48278;52.704;6.536;2022-11-23T05:01:04;8.00;99.90
58339;DHT22;48278;52.704;6.536;2022-11-23T05:03:30;8.10;99.90
58339;DHT22;48278;52.704;6.536;2022-11-23T05:06:00;8.00;99.90
58339;DHT22;48278;52.704;6.536;2022-11-23T05:08:27;8.00;99.90
58339;DHT22;48278;52.704;6.536;2022-11-23T05:10:52;7.90;99.90
58339;DHT22;48278;52.704;6.536;2022-11-23T05:13:18;7.90;99.90
58339;DHT22;48278;52.704;6.536;2022-11-23T05:15:44;7.80;99.90
58339;DHT22;48278;52.704;6.536;2022-11-23T05:18:10;7.80;99.90
58339;DHT22;48278;52.704;6.536;2022-11-23T05:20:36;7.80;99.90
58339;DHT22;48278;52.704;6.536;2022-11-23T05:23:02;7.70;99.90
58339;DHT22;48278;52.704;6.536;2022-11-23T05:25:28;7.70;99.90
58339;DHT22;48278;52.704;6.536;2022-11-23T05:27:54;7.60;99.90
58339;DHT22;48278;52.704;6.536;2022-11-23T05:30:20;7.60;99.90
58339;DHT22;48278;52.704;6.536;2022-11-23T05:32:46;7.50;99.90
58339;DHT22;48278;52.704;6.536;2022-11-23T05:35:11;7.50;99.90
58339;DHT22;48278;52.704;6.536;2022-11-23T05:37:37;7.40;99.90
58339;DHT22;48278;52.704;6.536;2022-11-23T05:40:04;7.40;99.90
58339;DHT22;48278;52.704;6.536;2022-11-23T05:42:30;7.50;99.90
58339;DHT22;48278;52.704;6.536;2022-11-23T05:44:56;7.40;99.90
58339;DHT22;48278;52.704;6.536;2022-11-23T05:47:22;7.50;99.90
58339;DHT22;48278;52.704;6.536;2022-11-23T05:49:48;7.40;99.90
58339;DHT22;48278;52.704;6.536;2022-11-23T05:52:15;7.40;99.90
58339;DHT22;48278;52.704;6.536;2022-11-23T05:54:40;7.40;99.90
58339;DHT22;48278;52.704;6.536;2022-11-23T05:57:06;7.40;99.90
58339;DHT22;48278;52.704;6.536;2022-11-23T05:59:32;7.50;99.90
58339;DHT22;48278;52.704;6.536;2022-11-23T06:01:57;7.50;99.90
58339;DHT22;48278;52.704;6.536;2022-11-23T06:04:23;7.40;99.90
58339;DHT22;48278;52.704;6.536;2022-11-23T06:06:49;7.40;99.90
58339;DHT22;48278;52.704;6.536;2022-11-23T06:09:14;7.30;99.90
58339;DHT22;48278;52.704;6.536;2022-11-23T06:11:40;7.30;99.90
58339;DHT22;48278;52.704;6.536;2022-11-23T06:14:06;7.10;99.90
58339;DHT22;48278;52.704;6.536;2022-11-23T06:16:32;7.10;99.90
58339;DHT22;48278;52.704;6.536;2022-11-23T06:18:57;7.00;99.90
58339;DHT22;48278;52.704;6.536;2022-11-23T06:21:23;6.90;99.90
58339;DHT22;48278;52.704;6.536;2022-11-23T06:23:49;6.90;99.90
58339;DHT22;48278;52.704;6.536;2022-11-23T06:26:14;6.80;99.90
58339;DHT22;48278;52.704;6.536;2022-11-23T06:28:40;6.80;99.90
58339;DHT22;48278;52.704;6.536;2022-11-23T06:31:06;6.80;99.90
58339;DHT22;48278;52.704;6.536;2022-11-23T06:33:33;6.80;99.90
58339;DHT22;48278;52.704;6.536;2022-11-23T06:36:00;6.90;99.90
58339;DHT22;48278;52.704;6.536;2022-11-23T06:38:26;6.90;99.90
58339;DHT22;48278;52.704;6.536;2022-11-23T06:40:55;6.80;99.90
58339;DHT22;48278;52.704;6.536;2022-11-23T06:43:22;6.90;99.90
58339;DHT22;48278;52.704;6.536;2022-11-23T06:45:47;6.90;99.90
58339;DHT22;48278;52.704;6.536;2022-11-23T06:48:13;7.00;99.90
58339;DHT22;48278;52.704;6.536;2022-11-23T06:50:39;7.00;99.90
58339;DHT22;48278;52.704;6.536;2022-11-23T06:53:04;7.00;99.90
58339;DHT22;48278;52.704;6.536;2022-11-23T06:55:30;7.10;99.90
58339;DHT22;48278;52.704;6.536;2022-11-23T06:57:56;7.10;99.90
58339;DHT22;48278;52.704;6.536;2022-11-23T07:00:24;7.20;99.90
58339;DHT22;48278;52.704;6.536;2022-11-23T07:02:53;7.20;99.90
58339;DHT22;48278;52.704;6.536;2022-11-23T07:05:20;7.20;99.90
58339;DHT22;48278;52.704;6.536;2022-11-23T07:07:46;7.20;99.90
58339;DHT22;48278;52.704;6.536;2022-11-23T07:10:11;7.20;99.90
58339;DHT22;48278;52.704;6.536;2022-11-23T07:12:38;7.30;99.90
58339;DHT22;48278;52.704;6.536;2022-11-23T07:15:05;7.30;99.90
58339;DHT22;48278;52.704;6.536;2022-11-23T07:17:31;7.30;99.90
58339;DHT22;48278;52.704;6.536;2022-11-23T07:19:57;7.30;99.90
58339;DHT22;48278;52.704;6.536;2022-11-23T07:22:23;7.40;99.90
58339;DHT22;48278;52.704;6.536;2022-11-23T07:24:49;7.40;99.90
58339;DHT22;48278;52.704;6.536;2022-11-23T07:27:17;7.50;99.90
58339;DHT22;48278;52.704;6.536;2022-11-23T07:29:44;7.50;99.90
58339;DHT22;48278;52.704;6.536;2022-11-23T07:32:10;7.40;99.90
58339;DHT22;48278;52.704;6.536;2022-11-23T07:34:36;7.50;99.90
58339;DHT22;48278;52.704;6.536;2022-11-23T07:37:02;7.50;99.90
58339;DHT22;48278;52.704;6.536;2022-11-23T07:39:29;7.60;99.90
58339;DHT22;48278;52.704;6.536;2022-11-23T07:41:54;7.60;99.90
58339;DHT22;48278;52.704;6.536;2022-11-23T07:44:21;7.60;99.90
58339;DHT22;48278;52.704;6.536;2022-11-23T07:46:47;7.60;99.90
58339;DHT22;48278;52.704;6.536;2022-11-23T07:49:12;7.60;99.90
58339;DHT22;48278;52.704;6.536;2022-11-23T07:51:38;7.70;99.90
58339;DHT22;48278;52.704;6.536;2022-11-23T07:54:04;7.70;99.90
58339;DHT22;48278;52.704;6.536;2022-11-23T07:56:30;7.80;99.90
58339;DHT22;48278;52.704;6.536;2022-11-23T07:58:55;7.80;99.90
58339;DHT22;48278;52.704;6.536;2022-11-23T08:01:21;7.80;99.90
58339;DHT22;48278;52.704;6.536;2022-11-23T08:03:47;7.90;99.90
58339;DHT22;48278;52.704;6.536;2022-11-23T08:06:13;7.90;99.90
58339;DHT22;48278;52.704;6.536;2022-11-23T08:08:40;8.00;99.90
58339;DHT22;48278;52.704;6.536;2022-11-23T08:11:08;8.00;99.90
58339;DHT22;48278;52.704;6.536;2022-11-23T08:13:34;8.10;99.90
58339;DHT22;48278;52.704;6.536;2022-11-23T08:16:02;8.10;99.90
58339;DHT22;48278;52.704;6.536;2022-11-23T08:18:28;8.20;99.90
58339;DHT22;48278;52.704;6.536;2022-11-23T08:20:54;8.20;99.90
58339;DHT22;48278;52.704;6.536;2022-11-23T08:23:20;8.20;99.90
58339;DHT22;48278;52.704;6.536;2022-11-23T08:25:46;8.30;99.90
58339;DHT22;48278;52.704;6.536;2022-11-23T08:28:11;8.30;99.90
58339;DHT22;48278;52.704;6.536;2022-11-23T08:30:37;8.30;99.90
58339;DHT22;48278;52.704;6.536;2022-11-23T08:33:04;8.40;99.90
58339;DHT22;48278;52.704;6.536;2022-11-23T08:35:38;8.40;99.90
58339;DHT22;48278;52.704;6.536;2022-11-23T08:38:05;8.40;99.90
58339;DHT22;48278;52.704;6.536;2022-11-23T08:40:32;8.50;99.90
58339;DHT22;48278;52.704;6.536;2022-11-23T08:42:58;8.50;99.90
58339;DHT22;48278;52.704;6.536;2022-11-23T08:45:24;8.50;99.90
58339;DHT22;48278;52.704;6.536;2022-11-23T08:47:49;8.60;99.90
58339;DHT22;48278;52.704;6.536;2022-11-23T08:50:16;8.60;99.90
58339;DHT22;48278;52.704;6.536;2022-11-23T08:52:42;8.70;99.90
58339;DHT22;48278;52.704;6.536;2022-11-23T08:55:08;8.80;99.90
58339;DHT22;48278;52.704;6.536;2022-11-23T08:57:34;8.80;99.90
58339;DHT22;48278;52.704;6.536;2022-11-23T09:00:00;8.80;99.90
58339;DHT22;48278;52.704;6.536;2022-11-23T09:02:25;8.90;99.90
58339;DHT22;48278;52.704;6.536;2022-11-23T09:04:51;8.90;99.90
58339;DHT22;48278;52.704;6.536;2022-11-23T09:07:17;8.90;99.90
58339;DHT22;48278;52.704;6.536;2022-11-23T09:09:42;9.00;99.90
58339;DHT22;48278;52.704;6.536;2022-11-23T09:12:08;8.90;99.90
58339;DHT22;48278;52.704;6.536;2022-11-23T09:14:34;8.90;99.90
58339;DHT22;48278;52.704;6.536;2022-11-23T09:17:01;9.00;99.90
58339;DHT22;48278;52.704;6.536;2022-11-23T09:19:27;9.10;99.90
58339;DHT22;48278;52.704;6.536;2022-11-23T09:21:53;9.00;99.90
58339;DHT22;48278;52.704;6.536;2022-11-23T09:24:18;9.10;99.90
58339;DHT22;48278;52.704;6.536;2022-11-23T09:26:44;9.10;99.90
58339;DHT22;48278;52.704;6.536;2022-11-23T09:29:10;9.10;99.90
58339;DHT22;48278;52.704;6.536;2022-11-23T09:31:36;9.10;99.90
58339;DHT22;48278;52.704;6.536;2022-11-23T09:34:03;9.10;99.90
58339;DHT22;48278;52.704;6.536;2022-11-23T09:36:29;9.00;99.90
58339;DHT22;48278;52.704;6.536;2022-11-23T09:38:54;9.00;99.90
58339;DHT22;48278;52.704;6.536;2022-11-23T09:44:42;9.00;99.90
58339;DHT22;48278;52.704;6.536;2022-11-23T09:52:34;9.00;99.90
58339;DHT22;48278;52.704;6.536;2022-11-23T09:55:04;8.90;99.90
58339;DHT22;48278;52.704;6.536;2022-11-23T09:57:34;8.90;99.90
58339;DHT22;48278;52.704;6.536;2022-11-23T10:00:07;8.70;99.90
58339;DHT22;48278;52.704;6.536;2022-11-23T10:02:40;8.70;99.90
58339;DHT22;48278;52.704;6.536;2022-11-23T10:05:06;8.70;99.90
58339;DHT22;48278;52.704;6.536;2022-11-23T10:10:30;8.80;99.90
58339;DHT22;48278;52.704;6.536;2022-11-23T10:15:39;8.80;99.90
58339;DHT22;48278;52.704;6.536;2022-11-23T10:18:37;8.90;99.90
58339;DHT22;48278;52.704;6.536;2022-11-23T10:23:53;8.90;99.90
58339;DHT22;48278;52.704;6.536;2022-11-23T10:26:27;9.00;99.90
58339;DHT22;48278;52.704;6.536;2022-11-23T10:28:53;9.10;99.90
58339;DHT22;48278;52.704;6.536;2022-11-23T10:31:24;9.10;99.90
58339;DHT22;48278;52.704;6.536;2022-11-23T10:36:24;9.20;99.90
58339;DHT22;48278;52.704;6.536;2022-11-23T10:38:58;9.20;99.90
58339;DHT22;48278;52.704;6.536;2022-11-23T10:41:25;9.30;99.90
58339;DHT22;48278;52.704;6.536;2022-11-23T10:44:33;9.40;99.90
58339;DHT22;48278;52.704;6.536;2022-11-23T10:47:01;9.50;99.90
58339;DHT22;48278;52.704;6.536;2022-11-23T10:49:32;9.60;99.90
58339;DHT22;48278;52.704;6.536;2022-11-23T10:52:05;9.60;99.90
58339;DHT22;48278;52.704;6.536;2022-11-23T10:57:29;9.80;99.90
58339;DHT22;48278;52.704;6.536;2022-11-23T11:02:27;9.60;99.90
58339;DHT22;48278;52.704;6.536;2022-11-23T11:05:13;9.60;99.90
58339;DHT22;48278;52.704;6.536;2022-11-23T11:07:39;9.40;99.90
58339;DHT22;48278;52.704;6.536;2022-11-23T11:10:05;9.40;99.90
58339;DHT22;48278;52.704;6.536;2022-11-23T11:12:34;9.40;99.90
58339;DHT22;48278;52.704;6.536;2022-11-23T11:15:13;9.40;99.90
58339;DHT22;48278;52.704;6.536;2022-11-23T11:17:40;9.40;99.90
58339;DHT22;48278;52.704;6.536;2022-11-23T11:20:29;9.40;99.90
58339;DHT22;48278;52.704;6.536;2022-11-23T11:22:57;9.50;99.90
58339;DHT22;48278;52.704;6.536;2022-11-23T11:25:37;9.50;99.90
58339;DHT22;48278;52.704;6.536;2022-11-23T11:28:16;9.60;99.90
58339;DHT22;48278;52.704;6.536;2022-11-23T11:30:55;9.60;99.90
58339;DHT22;48278;52.704;6.536;2022-11-23T11:33:39;9.80;99.90
58339;DHT22;48278;52.704;6.536;2022-11-23T11:36:09;9.70;99.90
58339;DHT22;48278;52.704;6.536;2022-11-23T11:38:39;9.70;99.90
58339;DHT22;48278;52.704;6.536;2022-11-23T11:41:08;9.70;99.90
58339;DHT22;48278;52.704;6.536;2022-11-23T11:43:43;9.70;99.90
58339;DHT22;48278;52.704;6.536;2022-11-23T11:48:54;9.80;99.90
58339;DHT22;48278;52.704;6.536;2022-11-23T11:51:26;9.80;99.90
58339;DHT22;48278;52.704;6.536;2022-11-23T11:54:12;9.70;99.90
58339;DHT22;48278;52.704;6.536;2022-11-23T11:56:51;9.80;99.90
58339;DHT22;48278;52.704;6.536;2022-11-23T11:59:34;9.80;99.90
58339;DHT22;48278;52.704;6.536;2022-11-23T12:02:26;9.80;99.90
58339;DHT22;48278;52.704;6.536;2022-11-23T12:05:24;9.90;99.90
58339;DHT22;48278;52.704;6.536;2022-11-23T12:08:01;9.90;99.90
58339;DHT22;48278;52.704;6.536;2022-11-23T12:10:51;9.90;99.90
58339;DHT22;48278;52.704;6.536;2022-11-23T12:13:29;9.90;99.90
58339;DHT22;48278;52.704;6.536;2022-11-23T12:16:19;9.90;99.90
58339;DHT22;48278;52.704;6.536;2022-11-23T12:19:08;9.90;99.90
58339;DHT22;48278;52.704;6.536;2022-11-23T12:43:23;9.80;99.90
58339;DHT22;48278;52.704;6.536;2022-11-23T12:45:56;9.80;99.90
58339;DHT22;48278;52.704;6.536;2022-11-23T12:48:36;9.90;99.90
58339;DHT22;48278;52.704;6.536;2022-11-23T12:56:53;9.90;99.90
58339;DHT22;48278;52.704;6.536;2022-11-23T12:59:22;9.90;99.90
58339;DHT22;48278;52.704;6.536;2022-11-23T13:02:00;9.90;99.90
58339;DHT22;48278;52.704;6.536;2022-11-23T13:04:58;9.80;99.90
58339;DHT22;48278;52.704;6.536;2022-11-23T13:10:56;9.80;99.90
58339;DHT22;48278;52.704;6.536;2022-11-23T13:16:56;9.80;99.90
58339;DHT22;48278;52.704;6.536;2022-11-23T13:22:18;9.80;99.90
58339;DHT22;48278;52.704;6.536;2022-11-23T13:30:33;9.70;99.90
58339;DHT22;48278;52.704;6.536;2022-11-23T13:42:52;9.80;99.90
58339;DHT22;48278;52.704;6.536;2022-11-23T13:53:25;9.60;99.90
58339;DHT22;48278;52.704;6.536;2022-11-23T13:55:52;9.60;99.90
58339;DHT22;48278;52.704;6.536;2022-11-23T14:00:57;9.50;99.90
58339;DHT22;48278;52.704;6.536;2022-11-23T14:06:36;9.50;99.90
58339;DHT22;48278;52.704;6.536;2022-11-23T14:14:28;9.50;99.90
58339;DHT22;48278;52.704;6.536;2022-11-23T14:22:44;9.40;99.90
58339;DHT22;48278;52.704;6.536;2022-11-23T14:25:20;9.30;99.90
58339;DHT22;48278;52.704;6.536;2022-11-23T14:28:00;9.20;99.90
58339;DHT22;48278;52.704;6.536;2022-11-23T14:36:14;9.00;99.90
58339;DHT22;48278;52.704;6.536;2022-11-23T14:39:08;8.90;99.90
58339;DHT22;48278;52.704;6.536;2022-11-23T14:41:51;8.90;99.90
58339;DHT22;48278;52.704;6.536;2022-11-23T14:44:22;8.80;99.90
58339;DHT22;48278;52.704;6.536;2022-11-23T14:47:06;8.70;99.90
58339;DHT22;48278;52.704;6.536;2022-11-23T14:49:32;8.70;99.90
58339;DHT22;48278;52.704;6.536;2022-11-23T14:52:00;8.70;99.90
58339;DHT22;48278;52.704;6.536;2022-11-23T14:54:26;8.80;99.90
58339;DHT22;48278;52.704;6.536;2022-11-23T14:56:57;8.60;99.90
58339;DHT22;48278;52.704;6.536;2022-11-23T14:59:30;8.60;99.90
58339;DHT22;48278;52.704;6.536;2022-11-23T15:02:05;8.60;99.90
58339;DHT22;48278;52.704;6.536;2022-11-23T15:04:44;8.60;99.90
58339;DHT22;48278;52.704;6.536;2022-11-23T15:07:22;8.60;99.90
58339;DHT22;48278;52.704;6.536;2022-11-23T15:10:05;8.70;99.90
58339;DHT22;48278;52.704;6.536;2022-11-23T15:12:44;8.80;99.90
58339;DHT22;48278;52.704;6.536;2022-11-23T15:15:24;8.80;99.90
58339;DHT22;48278;52.704;6.536;2022-11-23T15:20:22;8.90;99.90
58339;DHT22;48278;52.704;6.536;2022-11-23T15:22:48;9.00;99.90
58339;DHT22;48278;52.704;6.536;2022-11-23T15:25:16;9.00;99.90
58339;DHT22;48278;52.704;6.536;2022-11-23T15:27:45;9.00;99.90
58339;DHT22;48278;52.704;6.536;2022-11-23T15:30:19;9.10;99.90
58339;DHT22;48278;52.704;6.536;2022-11-23T15:32:54;9.10;99.90
58339;DHT22;48278;52.704;6.536;2022-11-23T15:35:23;9.10;99.90
58339;DHT22;48278;52.704;6.536;2022-11-23T15:37:51;9.10;99.90
58339;DHT22;48278;52.704;6.536;2022-11-23T15:40:18;9.00;99.90
58339;DHT22;48278;52.704;6.536;2022-11-23T15:42:46;8.90;99.90
58339;DHT22;48278;52.704;6.536;2022-11-23T15:53:13;8.60;99.90
58339;DHT22;48278;52.704;6.536;2022-11-23T15:55:40;8.70;99.90
58339;DHT22;48278;52.704;6.536;2022-11-23T15:58:07;8.60;99.90
58339;DHT22;48278;52.704;6.536;2022-11-23T16:00:33;8.70;99.90
58339;DHT22;48278;52.704;6.536;2022-11-23T16:03:20;8.70;99.90
58339;DHT22;48278;52.704;6.536;2022-11-23T16:08:38;8.60;99.90
58339;DHT22;48278;52.704;6.536;2022-11-23T16:11:31;8.70;99.90
58339;DHT22;48278;52.704;6.536;2022-11-23T16:14:18;8.60;99.90
58339;DHT22;48278;52.704;6.536;2022-11-23T16:16:46;8.70;99.90
58339;DHT22;48278;52.704;6.536;2022-11-23T16:19:22;8.70;99.90
58339;DHT22;48278;52.704;6.536;2022-11-23T16:21:49;8.70;99.90
58339;DHT22;48278;52.704;6.536;2022-11-23T16:24:19;8.70;99.90
58339;DHT22;48278;52.704;6.536;2022-11-23T16:26:46;8.70;99.90
58339;DHT22;48278;52.704;6.536;2022-11-23T16:29:21;8.70;99.90
58339;DHT22;48278;52.704;6.536;2022-11-23T16:31:54;8.80;99.90
58339;DHT22;48278;52.704;6.536;2022-11-23T16:34:20;8.80;99.90
58339;DHT22;48278;52.704;6.536;2022-11-23T16:36:46;8.80;99.90
58339;DHT22;48278;52.704;6.536;2022-11-23T16:39:12;8.80;99.90
58339;DHT22;48278;52.704;6.536;2022-11-23T16:41:38;8.80;99.90
58339;DHT22;48278;52.704;6.536;2022-11-23T16:44:04;8.80;99.90
58339;DHT22;48278;52.704;6.536;2022-11-23T16:46:32;8.70;99.90
58339;DHT22;48278;52.704;6.536;2022-11-23T16:48:58;8.60;99.90
58339;DHT22;48278;52.704;6.536;2022-11-23T16:51:25;8.60;99.90
58339;DHT22;48278;52.704;6.536;2022-11-23T16:53:51;8.50;99.90
58339;DHT22;48278;52.704;6.536;2022-11-23T16:56:21;8.50;99.90
58339;DHT22;48278;52.704;6.536;2022-11-23T16:58:47;8.40;99.90
58339;DHT22;48278;52.704;6.536;2022-11-23T17:01:20;8.50;99.90
58339;DHT22;48278;52.704;6.536;2022-11-23T17:03:47;8.40;99.90
58339;DHT22;48278;52.704;6.536;2022-11-23T17:06:14;8.30;99.90
58339;DHT22;48278;52.704;6.536;2022-11-23T17:08:45;8.30;99.90
58339;DHT22;48278;52.704;6.536;2022-11-23T17:11:21;8.20;99.90
58339;DHT22;48278;52.704;6.536;2022-11-23T17:13:48;8.20;99.90
58339;DHT22;48278;52.704;6.536;2022-11-23T17:16:16;8.10;99.90
58339;DHT22;48278;52.704;6.536;2022-11-23T17:18:43;8.10;99.90
58339;DHT22;48278;52.704;6.536;2022-11-23T17:21:09;8.00;99.90
58339;DHT22;48278;52.704;6.536;2022-11-23T17:23:35;8.00;99.90
58339;DHT22;48278;52.704;6.536;2022-11-23T17:26:02;7.90;99.90
58339;DHT22;48278;52.704;6.536;2022-11-23T17:28:28;7.90;99.90
58339;DHT22;48278;52.704;6.536;2022-11-23T17:30:54;7.90;99.90
58339;DHT22;48278;52.704;6.536;2022-11-23T17:33:20;8.00;99.90
58339;DHT22;48278;52.704;6.536;2022-11-23T17:35:45;7.90;99.90
58339;DHT22;48278;52.704;6.536;2022-11-23T17:38:14;8.00;99.90
58339;DHT22;48278;52.704;6.536;2022-11-23T17:40:40;7.90;99.90
58339;DHT22;48278;52.704;6.536;2022-11-23T17:43:06;7.90;99.90
58339;DHT22;48278;52.704;6.536;2022-11-23T17:45:32;8.00;99.90
58339;DHT22;48278;52.704;6.536;2022-11-23T17:47:58;7.90;99.90
58339;DHT22;48278;52.704;6.536;2022-11-23T17:50:24;7.90;99.90
58339;DHT22;48278;52.704;6.536;2022-11-23T17:52:53;7.90;99.90
58339;DHT22;48278;52.704;6.536;2022-11-23T17:55:18;7.90;99.90
58339;DHT22;48278;52.704;6.536;2022-11-23T17:57:44;7.90;99.90
58339;DHT22;48278;52.704;6.536;2022-11-23T18:00:22;7.90;99.90
58339;DHT22;48278;52.704;6.536;2022-11-23T18:02:48;7.90;99.90